WSSL/XSP METAR and TAF weather

Enter ICAO airport designator
Station Type Date Time Source
WSSL METAR 2021/03/02 16:00 UTC NOAA

WSSL 021600Z 04008KT 9999 FEW025 BKN150 26/22 Q1012


Station Type Date Time Source
WSSL Decoded METAR 2021/03/02 16:00 UTC NOAA

Station name not available
Mar 02, 2021 - 11:00 AM EST / 2021.03.02 1600 UTC
Wind: from the NE (040 degrees) at 9 MPH (8 KT):0
Visibility: greater than 7 mile(s):0
Sky conditions: mostly cloudy
Temperature: 78 F (26 C)
Dew Point: 71 F (22 C)
Relative Humidity: 78%
Pressure (altimeter): 29.88 in. Hg (1012 hPa)
ob: WSSL 021600Z 04008KT 9999 FEW025 BKN150 26/22 Q1012
cycle: 16

Station Type Date Time Source
WSSL TAF 2021/03/02 12:15 UTC NOAA

TAF WSSL 021100Z 0212/0318 03010KT 9999 FEW015

Example: see airport list